Heat Index [SAI AWOS/ASOS Display]_________FAA Disclaimer: "Not for use in aviation at this time______________" Untitled Document
Auglaize County Neil Armstrong Airport (AXV)
100
13:50
16/09/28
07
N/A
N/A
29.82
N/A
912
56(F), 13(C)
56(F), 13(C)
54 F
100%
CLR
7
N/A
N/A
N/A
13:50 zulu Wind 100 at 07 Knots, Altimeter 29.82
METAR KAXV 281350Z AUTO 10007KT 7SM CLR 13/13 A2982 A02
METAR:
FAA Disclaimer--Advisory Use ONLY, not for flight info-- 3/04/2009: Welcome to the Neil Armstong AXV Graphical AWOS Display, if you find this information useful, please call the airport manager at 419-753-2810. New URL for AWOS smartphone display is http://www.saiawos2.com/AXV
INFO:
Wind Direction:
Wind Speed:
Wind Gust:
Wind Variable:
Altimeter:
Dens Alt:
Elev:
Temp:
Dwpt:
Wind Chill
Rel Humidity:
Ceiling:
Visibility:
Prsnt Wea:
PCPN:
Remarks:
How to read the WebPage